Time;durP1;ratioP1;P1;durP2;ratioP2;P2;SDS_P1;SDS_P2;PMS_P1;PMS_P2;Temp;Humidity;BMP_temperature;BMP_pressure;BME280_temperature;BME280_humidity;BME280_pressure;Samples;Min_cycle;Max_cycle;Signal;HPM_P1;HPM_P2
2022/06/24 00:02:15;;;;;;;1.83;1.73;;;;;;;;;;5059148;28;20220;-73
2022/06/24 00:05:05;;;;;;;1.60;1.60;;;;;;;;;;5065002;28;20589;-73
2022/06/24 00:07:54;;;;;;;1.60;1.60;;;;;;;;;;5062175;28;20262;-73
2022/06/24 00:10:43;;;;;;;1.50;1.50;;;;;;;;;;5063427;28;20668;-73
2022/06/24 00:13:40;;;;;;;1.60;1.60;;;;;;;;;;5060786;28;20215;-73
2022/06/24 00:16:29;;;;;;;1.70;1.70;;;;;;;;;;5058514;28;20228;-73
2022/06/24 00:19:16;;;;;;;1.47;1.47;;;;;;;;;;5060298;28;20211;-73
2022/06/24 00:22:09;;;;;;;1.50;1.50;;;;;;;;;;5059387;28;20211;-73
2022/06/24 00:25:10;;;;;;;1.97;1.60;;;;;;;;;;5059646;28;20219;-73
2022/06/24 00:28:03;;;;;;;1.73;1.73;;;;;;;;;;5058985;28;20227;-73
2022/06/24 00:30:55;;;;;;;1.60;1.60;;;;;;;;;;5064439;28;20581;-73
2022/06/24 00:33:46;;;;;;;1.90;1.90;;;;;;;;;;5061152;28;20347;-73
2022/06/24 00:36:35;;;;;;;1.53;1.53;;;;;;;;;;5059148;28;20242;-73
2022/06/24 00:39:32;;;;;;;1.70;1.70;;;;;;;;;;5057464;28;20208;-73
2022/06/24 00:42:19;;;;;;;1.63;1.63;;;;;;;;;;5062542;28;20295;-73
2022/06/24 00:45:15;;;;;;;1.57;1.47;;;;;;;;;;5059957;28;20290;-73
2022/06/24 00:48:09;;;;;;;1.60;1.60;;;;;;;;;;5058482;28;20302;-73
2022/06/24 00:50:57;;;;;;;1.30;1.30;;;;;;;;;;5060127;28;20208;-73
2022/06/24 00:53:46;;;;;;;1.57;1.57;;;;;;;;;;5061060;28;20690;-73
2022/06/24 00:56:33;;;;;;;1.50;1.50;;;;;;;;;;5062294;28;20212;-73
2022/06/24 00:59:20;;;;;;;1.70;1.60;;;;;;;;;;5061318;28;20227;-73
2022/06/24 01:02:08;;;;;;;2.00;2.00;;;;;;;;;;5059785;28;20231;-73
2022/06/24 01:05:05;;;;;;;1.80;1.60;;;;;;;;;;5065307;28;20578;-73
2022/06/24 01:07:52;;;;;;;1.70;1.70;;;;;;;;;;5059330;28;20251;-73
2022/06/24 01:10:40;;;;;;;1.50;1.40;;;;;;;;;;5062933;28;20216;-73
2022/06/24 01:13:27;;;;;;;1.70;1.70;;;;;;;;;;5059225;28;20223;-73
2022/06/24 01:16:14;;;;;;;1.70;1.70;;;;;;;;;;5060968;28;20203;-73
2022/06/24 01:19:05;;;;;;;2.00;1.90;;;;;;;;;;5063851;28;20213;-73
2022/06/24 01:21:53;;;;;;;1.90;1.90;;;;;;;;;;5058954;28;20203;-73
2022/06/24 01:24:40;;;;;;;1.43;1.43;;;;;;;;;;5055943;28;20239;-73
2022/06/24 01:27:28;;;;;;;1.60;1.60;;;;;;;;;;5062317;28;20498;-73
2022/06/24 01:30:15;;;;;;;1.53;1.53;;;;;;;;;;5056987;28;20674;-73
2022/06/24 01:33:01;;;;;;;1.70;1.70;;;;;;;;;;5059492;28;20581;-73
2022/06/24 01:35:49;;;;;;;1.70;1.70;;;;;;;;;;5060834;28;20208;-73
2022/06/24 01:38:37;;;;;;;1.80;1.77;;;;;;;;;;5057212;28;20227;-73
2022/06/24 01:41:24;;;;;;;1.50;1.50;;;;;;;;;;5060671;28;20211;-73
2022/06/24 01:44:11;;;;;;;1.63;1.63;;;;;;;;;;5057238;28;20578;-73
2022/06/24 01:46:58;;;;;;;1.60;1.60;;;;;;;;;;5060067;28;20200;-72
2022/06/24 01:49:45;;;;;;;1.70;1.60;;;;;;;;;;5058366;28;20598;-73
2022/06/24 01:52:32;;;;;;;1.73;1.63;;;;;;;;;;5058686;28;20244;-73
2022/06/24 01:55:21;;;;;;;1.60;1.60;;;;;;;;;;5061653;28;20215;-73
2022/06/24 01:58:08;;;;;;;1.57;1.57;;;;;;;;;;5056536;28;20562;-73
2022/06/24 02:00:55;;;;;;;1.80;1.80;;;;;;;;;;5062518;28;20267;-73
2022/06/24 02:03:43;;;;;;;1.70;1.70;;;;;;;;;;5056700;28;20417;-73
2022/06/24 02:06:30;;;;;;;1.50;1.50;;;;;;;;;;5060216;28;20219;-73
2022/06/24 02:09:17;;;;;;;1.30;1.30;;;;;;;;;;5042683;28;20209;-73
2022/06/24 02:15:10;;;;;;;1.50;1.50;;;;;;;;;;5038969;28;20347;-73
2022/06/24 02:17:57;;;;;;;1.60;1.60;;;;;;;;;;5043721;28;20294;-73
2022/06/24 02:20:44;;;;;;;1.57;1.47;;;;;;;;;;5039623;28;20671;-73
2022/06/24 02:23:31;;;;;;;1.53;1.53;;;;;;;;;;5035227;28;20209;-73
2022/06/24 02:26:18;;;;;;;1.50;1.50;;;;;;;;;;5037734;28;20220;-73
2022/06/24 02:29:07;;;;;;;1.57;1.57;;;;;;;;;;5037720;28;20203;-73
2022/06/24 02:31:54;;;;;;;1.60;1.60;;;;;;;;;;5040948;28;20205;-73
2022/06/24 02:34:41;;;;;;;1.57;1.57;;;;;;;;;;5040086;28;20657;-73
2022/06/24 02:37:28;;;;;;;1.63;1.63;;;;;;;;;;5043260;28;20237;-73
2022/06/24 02:43:20;;;;;;;1.57;1.57;;;;;;;;;;5034566;28;20213;-73
2022/06/24 02:46:10;;;;;;;1.40;1.40;;;;;;;;;;5037355;28;20899;-73
2022/06/24 02:48:57;;;;;;;1.43;1.43;;;;;;;;;;5037354;28;20208;-73
2022/06/24 02:51:44;;;;;;;1.50;1.50;;;;;;;;;;5035641;28;20224;-73
2022/06/24 02:54:31;;;;;;;1.30;1.30;;;;;;;;;;5041228;28;20671;-73
2022/06/24 02:57:18;;;;;;;1.27;1.27;;;;;;;;;;5039620;28;20696;-73
2022/06/24 03:00:06;;;;;;;1.70;1.60;;;;;;;;;;5040580;28;20215;-73
2022/06/24 03:02:55;;;;;;;1.53;1.50;;;;;;;;;;5039163;28;20228;-73
2022/06/24 03:05:42;;;;;;;1.53;1.53;;;;;;;;;;5039392;28;20205;-73
2022/06/24 03:08:30;;;;;;;1.33;1.33;;;;;;;;;;5052949;28;20242;-73
2022/06/24 03:11:17;;;;;;;1.33;1.33;;;;;;;;;;5056405;28;20285;-73
2022/06/24 03:14:04;;;;;;;1.20;1.20;;;;;;;;;;5057366;28;20212;-73
2022/06/24 03:16:51;;;;;;;1.43;1.43;;;;;;;;;;5056346;28;20221;-73
2022/06/24 03:19:39;;;;;;;1.77;1.67;;;;;;;;;;5059906;28;20581;-73
2022/06/24 03:22:26;;;;;;;1.33;1.33;;;;;;;;;;5054801;28;20212;-73
2022/06/24 03:25:13;;;;;;;1.60;1.60;;;;;;;;;;5056676;28;20209;-73
2022/06/24 03:28:01;;;;;;;1.30;1.30;;;;;;;;;;5058632;28;20341;-73
2022/06/24 03:30:48;;;;;;;1.60;1.60;;;;;;;;;;5067157;28;20251;-73
2022/06/24 03:33:35;;;;;;;1.40;1.40;;;;;;;;;;5064922;28;20210;-73
2022/06/24 03:36:24;;;;;;;1.67;1.63;;;;;;;;;;5070262;28;20210;-73
2022/06/24 03:39:11;;;;;;;1.30;1.30;;;;;;;;;;5062151;28;20656;-73
2022/06/24 03:41:59;;;;;;;1.40;1.33;;;;;;;;;;5059140;28;20580;-73
2022/06/24 03:44:46;;;;;;;1.50;1.50;;;;;;;;;;5065805;28;20212;-73
2022/06/24 03:47:33;;;;;;;1.27;1.27;;;;;;;;;;5064059;28;20213;-73
2022/06/24 03:50:20;;;;;;;1.83;1.73;;;;;;;;;;5062422;28;20748;-73
2022/06/24 03:53:08;;;;;;;1.70;1.60;;;;;;;;;;5065506;28;20208;-73
2022/06/24 03:55:55;;;;;;;1.67;1.67;;;;;;;;;;5057642;28;20691;-73
2022/06/24 03:58:42;;;;;;;1.30;1.30;;;;;;;;;;5060088;28;20266;-73
2022/06/24 04:01:30;;;;;;;1.30;1.30;;;;;;;;;;5062253;28;20209;-73
2022/06/24 04:04:17;;;;;;;1.30;1.30;;;;;;;;;;5061462;28;20204;-73
2022/06/24 04:07:04;;;;;;;1.50;1.50;;;;;;;;;;5060011;28;21144;-73
2022/06/24 04:09:53;;;;;;;1.40;1.40;;;;;;;;;;5064032;28;20204;-73
2022/06/24 04:12:39;;;;;;;1.53;1.53;;;;;;;;;;5061267;28;20209;-73
2022/06/24 04:15:26;;;;;;;1.30;1.30;;;;;;;;;;5062598;28;20216;-73
2022/06/24 04:18:14;;;;;;;1.40;1.40;;;;;;;;;;5060136;28;20681;-73
2022/06/24 04:21:01;;;;;;;1.63;1.60;;;;;;;;;;5060021;28;20590;-73
2022/06/24 04:23:49;;;;;;;1.20;1.20;;;;;;;;;;5059802;28;20205;-71
2022/06/24 04:26:38;;;;;;;1.30;1.30;;;;;;;;;;5059944;28;20333;-70
2022/06/24 04:29:25;;;;;;;1.47;1.47;;;;;;;;;;5065219;28;20210;-70
2022/06/24 04:32:12;;;;;;;1.47;1.47;;;;;;;;;;5062304;28;20209;-71
2022/06/24 04:34:59;;;;;;;1.20;1.20;;;;;;;;;;5059587;28;20208;-70
2022/06/24 04:37:45;;;;;;;1.40;1.40;;;;;;;;;;5057711;28;20224;-70
2022/06/24 04:40:32;;;;;;;1.40;1.40;;;;;;;;;;5063263;28;20201;-70
2022/06/24 04:43:21;;;;;;;1.17;1.17;;;;;;;;;;5056647;28;20208;-70
2022/06/24 04:46:08;;;;;;;1.30;1.30;;;;;;;;;;5064380;28;20270;-70
2022/06/24 04:48:55;;;;;;;1.57;1.47;;;;;;;;;;5063679;28;20259;-70
2022/06/24 04:51:42;;;;;;;1.50;1.50;;;;;;;;;;5059433;28;20269;-69
2022/06/24 04:54:29;;;;;;;1.40;1.40;;;;;;;;;;5057309;28;20206;-70
2022/06/24 04:57:18;;;;;;;1.30;1.30;;;;;;;;;;5059822;28;20231;-69
2022/06/24 05:00:10;;;;;;;1.43;1.43;;;;;;;;;;5059307;28;20246;-70
2022/06/24 05:02:57;;;;;;;1.37;1.37;;;;;;;;;;5057425;28;20227;-70
2022/06/24 05:05:44;;;;;;;1.53;1.53;;;;;;;;;;5064507;28;20221;-70
2022/06/24 05:08:31;;;;;;;1.50;1.50;;;;;;;;;;5064814;28;20730;-70
2022/06/24 05:11:18;;;;;;;1.40;1.40;;;;;;;;;;5064042;28;20210;-69
2022/06/24 05:14:06;;;;;;;1.40;1.40;;;;;;;;;;5055497;28;20946;-70
2022/06/24 05:16:55;;;;;;;1.30;1.30;;;;;;;;;;5060902;28;20355;-70
2022/06/24 05:19:42;;;;;;;1.40;1.37;;;;;;;;;;5056907;28;20259;-70
2022/06/24 05:22:30;;;;;;;1.70;1.70;;;;;;;;;;5060101;28;20209;-70
2022/06/24 05:25:18;;;;;;;1.50;1.50;;;;;;;;;;5057335;28;20219;-70
2022/06/24 05:28:05;;;;;;;1.23;1.23;;;;;;;;;;5058027;28;20931;-70
2022/06/24 05:30:56;;;;;;;1.20;1.20;;;;;;;;;;5059096;28;20212;-70
2022/06/24 05:33:45;;;;;;;1.30;1.23;;;;;;;;;;5063589;28;20686;-70
2022/06/24 05:36:32;;;;;;;1.33;1.33;;;;;;;;;;5061612;28;20203;-72
2022/06/24 05:39:19;;;;;;;1.50;1.50;;;;;;;;;;5054294;28;20230;-70
2022/06/24 05:42:08;;;;;;;1.50;1.50;;;;;;;;;;5059568;28;20208;-70
2022/06/24 05:44:55;;;;;;;1.30;1.30;;;;;;;;;;5061823;28;20208;-70
2022/06/24 05:47:44;;;;;;;1.33;1.30;;;;;;;;;;5055040;28;20202;-68
2022/06/24 05:50:36;;;;;;;1.43;1.43;;;;;;;;;;5060991;28;20216;-70
2022/06/24 05:56:28;;;;;;;1.40;1.40;;;;;;;;;;5061729;28;20210;-70
2022/06/24 05:59:15;;;;;;;1.40;1.40;;;;;;;;;;5059105;28;20298;-69
2022/06/24 06:02:02;;;;;;;1.50;1.50;;;;;;;;;;5063712;28;20574;-72
2022/06/24 06:04:49;;;;;;;1.53;1.53;;;;;;;;;;5060361;28;20206;-73
2022/06/24 06:07:38;;;;;;;1.40;1.40;;;;;;;;;;5057029;28;20255;-73
2022/06/24 06:10:25;;;;;;;1.67;1.67;;;;;;;;;;5062550;28;20208;-73
2022/06/24 06:13:12;;;;;;;1.40;1.40;;;;;;;;;;5060601;28;20330;-73
2022/06/24 06:15:59;;;;;;;1.43;1.43;;;;;;;;;;5057843;28;20218;-73
2022/06/24 06:18:47;;;;;;;1.23;1.23;;;;;;;;;;5056835;28;20231;-73
2022/06/24 06:21:34;;;;;;;1.40;1.40;;;;;;;;;;5055846;28;20954;-73
2022/06/24 06:24:22;;;;;;;1.13;1.13;;;;;;;;;;5062263;28;20218;-73
2022/06/24 06:27:09;;;;;;;1.53;1.53;;;;;;;;;;5059380;28;20580;-73
2022/06/24 06:29:56;;;;;;;1.37;1.37;;;;;;;;;;5063270;28;20205;-74
2022/06/24 06:32:43;;;;;;;1.30;1.30;;;;;;;;;;5067260;28;20209;-73
2022/06/24 06:35:30;;;;;;;1.30;1.30;;;;;;;;;;5063052;28;20208;-73
2022/06/24 06:38:18;;;;;;;1.20;1.20;;;;;;;;;;5056995;28;20231;-73
2022/06/24 06:41:06;;;;;;;1.17;1.17;;;;;;;;;;5063911;28;20220;-73
2022/06/24 06:43:53;;;;;;;1.20;1.20;;;;;;;;;;5059520;28;20281;-73
2022/06/24 06:46:42;;;;;;;1.25;1.25;;;;;;;;;;5060312;28;20269;-73
2022/06/24 06:49:29;;;;;;;1.40;1.40;;;;;;;;;;5058236;28;20207;-74
2022/06/24 06:52:16;;;;;;;1.05;1.05;;;;;;;;;;5053990;28;20285;-73
2022/06/24 06:55:03;;;;;;;1.02;1.02;;;;;;;;;;5061824;28;20213;-73
2022/06/24 06:57:53;;;;;;;1.20;1.20;;;;;;;;;;5058051;28;20223;-73
2022/06/24 07:00:40;;;;;;;1.00;1.00;;;;;;;;;;5056354;28;20211;-73
2022/06/24 07:03:28;;;;;;;1.08;1.08;;;;;;;;;;5059716;28;20687;-74
2022/06/24 07:06:16;;;;;;;1.00;1.00;;;;;;;;;;5060327;28;20631;-74
2022/06/24 07:09:03;;;;;;;1.00;1.00;;;;;;;;;;5060711;28;20235;-74
2022/06/24 07:11:50;;;;;;;0.95;0.95;;;;;;;;;;5056845;28;20638;-74
2022/06/24 07:14:42;;;;;;;1.00;1.00;;;;;;;;;;5052289;28;20204;-74
2022/06/24 07:17:29;;;;;;;1.13;0.90;;;;;;;;;;5056567;28;20247;-74
2022/06/24 07:20:16;;;;;;;0.85;0.85;;;;;;;;;;5057354;28;20238;-75
2022/06/24 07:23:07;;;;;;;0.82;0.82;;;;;;;;;;5059054;28;20199;-74
2022/06/24 07:25:56;;;;;;;1.00;1.00;;;;;;;;;;5058689;28;20270;-75
2022/06/24 07:28:43;;;;;;;1.00;1.00;;;;;;;;;;5059063;28;20656;-75
2022/06/24 07:31:32;;;;;;;0.82;0.82;;;;;;;;;;5053791;28;20210;-75
2022/06/24 07:34:19;;;;;;;0.80;0.80;;;;;;;;;;5061649;28;20230;-75
2022/06/24 07:37:06;;;;;;;0.80;0.80;;;;;;;;;;5056408;28;20206;-75
2022/06/24 07:39:53;;;;;;;0.98;0.98;;;;;;;;;;5061056;28;20226;-75
2022/06/24 07:42:40;;;;;;;0.80;0.80;;;;;;;;;;5058854;28;20207;-75
2022/06/24 07:45:27;;;;;;;0.70;0.70;;;;;;;;;;5055456;28;20226;-75
2022/06/24 07:48:19;;;;;;;0.95;0.77;;;;;;;;;;5057549;28;20203;-75
2022/06/24 07:51:29;;;;;;;0.80;0.80;;;;;;;;;;5053856;28;20196;-75
2022/06/24 07:54:16;;;;;;;1.00;1.00;;;;;;;;;;5054671;28;20207;-75
2022/06/24 07:57:03;;;;;;;0.75;0.75;;;;;;;;;;5051166;28;20199;-75
2022/06/24 07:59:50;;;;;;;0.73;0.73;;;;;;;;;;5050731;28;20686;-74
2022/06/24 08:02:37;;;;;;;0.77;0.77;;;;;;;;;;5055580;28;20233;-74
2022/06/24 08:05:26;;;;;;;0.80;0.80;;;;;;;;;;5057993;28;20578;-74
2022/06/24 08:08:13;;;;;;;0.80;0.80;;;;;;;;;;5058302;28;20239;-74
2022/06/24 08:11:00;;;;;;;0.90;0.90;;;;;;;;;;5056535;28;20761;-74
2022/06/24 08:13:47;;;;;;;0.80;0.80;;;;;;;;;;5057643;28;20341;-71
2022/06/24 08:16:35;;;;;;;0.73;0.73;;;;;;;;;;5056211;28;20212;-71
2022/06/24 08:19:22;;;;;;;0.70;0.70;;;;;;;;;;5056085;28;20235;-71
2022/06/24 08:22:11;;;;;;;0.70;0.70;;;;;;;;;;5063211;28;20207;-70
2022/06/24 08:24:58;;;;;;;0.95;0.95;;;;;;;;;;5060134;28;20211;-72
2022/06/24 08:27:45;;;;;;;0.80;0.80;;;;;;;;;;5059508;28;20231;-71
2022/06/24 08:30:34;;;;;;;0.75;0.75;;;;;;;;;;5063789;28;20210;-71
2022/06/24 08:33:21;;;;;;;0.80;0.80;;;;;;;;;;5059912;28;20195;-71
2022/06/24 08:36:08;;;;;;;0.80;0.80;;;;;;;;;;5062791;28;20212;-71
2022/06/24 08:38:58;;;;;;;1.00;1.00;;;;;;;;;;5059202;28;20719;-71
2022/06/24 08:41:48;;;;;;;1.10;1.10;;;;;;;;;;5060937;28;20671;-70
2022/06/24 08:44:37;;;;;;;0.80;0.80;;;;;;;;;;5065555;28;20212;-71
2022/06/24 08:47:24;;;;;;;1.00;1.00;;;;;;;;;;5059615;28;20199;-70
2022/06/24 08:50:11;;;;;;;1.10;1.10;;;;;;;;;;5058548;28;20211;-71
2022/06/24 08:53:03;;;;;;;0.82;0.82;;;;;;;;;;5058929;28;20214;-70
2022/06/24 08:55:52;;;;;;;0.82;0.82;;;;;;;;;;5061688;28;20207;-70
2022/06/24 08:58:41;;;;;;;0.80;0.80;;;;;;;;;;5058198;28;20214;-70
2022/06/24 09:01:28;;;;;;;0.90;0.90;;;;;;;;;;5060659;28;20234;-70
2022/06/24 09:04:15;;;;;;;0.98;0.98;;;;;;;;;;5060720;28;20196;-72
2022/06/24 09:07:02;;;;;;;1.13;1.13;;;;;;;;;;5062265;28;20238;-70
2022/06/24 09:09:58;;;;;;;1.15;1.15;;;;;;;;;;5066598;28;20210;-70
2022/06/24 09:12:48;;;;;;;1.10;1.10;;;;;;;;;;5059420;28;20296;-70
2022/06/24 09:15:36;;;;;;;1.27;1.27;;;;;;;;;;5064775;28;20204;-72
2022/06/24 09:18:25;;;;;;;1.13;1.13;;;;;;;;;;5063752;28;20203;-70
2022/06/24 09:21:22;;;;;;;1.40;1.30;;;;;;;;;;5059735;28;20200;-71
2022/06/24 09:24:10;;;;;;;1.27;1.27;;;;;;;;;;5059120;28;20260;-71
2022/06/24 09:27:00;;;;;;;1.38;1.38;;;;;;;;;;5057688;28;20207;-70
2022/06/24 09:29:50;;;;;;;1.40;1.30;;;;;;;;;;5054961;28;20212;-72
2022/06/24 09:32:49;;;;;;;1.38;1.38;;;;;;;;;;5059824;28;20211;-69
2022/06/24 09:35:37;;;;;;;1.30;1.30;;;;;;;;;;5066693;28;20214;-70
2022/06/24 09:38:26;;;;;;;1.60;1.50;;;;;;;;;;5059766;28;20207;-69
2022/06/24 09:41:13;;;;;;;1.42;1.42;;;;;;;;;;5059010;28;20215;-70
2022/06/24 09:44:01;;;;;;;1.65;1.65;;;;;;;;;;5063818;28;20211;-69
2022/06/24 09:47:03;;;;;;;1.58;1.58;;;;;;;;;;5061654;28;20211;-70
2022/06/24 09:49:56;;;;;;;1.85;1.75;;;;;;;;;;5056434;28;20199;-69
2022/06/24 09:52:44;;;;;;;1.58;1.58;;;;;;;;;;5059194;28;20222;-69
2022/06/24 09:55:32;;;;;;;1.75;1.75;;;;;;;;;;5056350;28;20277;-70
2022/06/24 09:58:19;;;;;;;1.95;1.80;;;;;;;;;;5059425;28;20203;-70
2022/06/24 10:01:06;;;;;;;1.60;1.60;;;;;;;;;;5058405;28;20232;-69
2022/06/24 10:03:56;;;;;;;1.70;1.60;;;;;;;;;;5058256;28;20199;-69
2022/06/24 10:06:44;;;;;;;1.88;1.77;;;;;;;;;;5064612;28;20215;-69
2022/06/24 10:09:35;;;;;;;1.70;1.70;;;;;;;;;;5066203;28;20242;-70
2022/06/24 10:12:23;;;;;;;2.00;1.90;;;;;;;;;;5063106;28;20203;-70
2022/06/24 10:15:11;;;;;;;2.22;2.13;;;;;;;;;;5060950;28;20218;-69
2022/06/24 10:18:00;;;;;;;1.77;1.70;;;;;;;;;;5056820;28;20548;-70
2022/06/24 10:20:51;;;;;;;1.90;1.80;;;;;;;;;;5062601;28;20219;-70
2022/06/24 10:23:43;;;;;;;1.67;1.67;;;;;;;;;;5057129;28;20590;-70
2022/06/24 10:26:32;;;;;;;3.08;1.90;;;;;;;;;;5060720;28;20231;-71
2022/06/24 10:29:28;;;;;;;2.20;2.10;;;;;;;;;;5058790;28;20671;-69
2022/06/24 10:32:15;;;;;;;1.55;1.55;;;;;;;;;;5062995;28;20199;-70
2022/06/24 10:35:06;;;;;;;1.70;1.70;;;;;;;;;;5056742;28;20301;-70
2022/06/24 10:37:56;;;;;;;2.00;1.90;;;;;;;;;;5060895;28;20210;-70
2022/06/24 10:40:44;;;;;;;1.88;1.77;;;;;;;;;;5061555;28;20259;-69
2022/06/24 10:43:39;;;;;;;2.00;1.90;;;;;;;;;;5051888;28;20218;-70
2022/06/24 10:46:26;;;;;;;1.88;1.77;;;;;;;;;;5061890;28;20206;-70
2022/06/24 10:49:13;;;;;;;2.00;1.90;;;;;;;;;;5067864;28;20203;-69
2022/06/24 10:52:32;;;;;;;1.88;1.88;;;;;;;;;;5058157;28;20203;-70
2022/06/24 10:55:33;;;;;;;1.90;1.90;;;;;;;;;;5055387;28;20267;-70
2022/06/24 10:58:21;;;;;;;2.10;2.00;;;;;;;;;;5058779;28;20214;-70
2022/06/24 11:01:11;;;;;;;1.77;1.77;;;;;;;;;;5054332;28;20231;-69
2022/06/24 11:04:01;;;;;;;1.77;1.67;;;;;;;;;;5058451;28;20217;-69
2022/06/24 11:07:09;;;;;;;1.80;1.70;;;;;;;;;;5055671;28;20300;-69
2022/06/24 11:09:56;;;;;;;2.15;2.05;;;;;;;;;;5064455;28;20199;-69
2022/06/24 11:12:48;;;;;;;1.90;1.80;;;;;;;;;;5058275;28;20208;-70
2022/06/24 11:15:36;;;;;;;1.90;1.65;;;;;;;;;;5059287;28;20210;-70
2022/06/24 11:18:26;;;;;;;2.20;2.10;;;;;;;;;;5055178;28;20209;-70
2022/06/24 11:21:17;;;;;;;1.80;1.70;;;;;;;;;;5051585;28;20234;-69
2022/06/24 11:24:05;;;;;;;1.95;1.85;;;;;;;;;;5055523;28;20216;-69
2022/06/24 11:27:06;;;;;;;2.20;2.10;;;;;;;;;;5057326;28;20668;-69
2022/06/24 11:29:57;;;;;;;2.08;1.98;;;;;;;;;;5051739;28;20203;-69
2022/06/24 11:32:51;;;;;;;2.15;1.95;;;;;;;;;;5063252;28;20237;-70
2022/06/24 11:35:39;;;;;;;2.00;1.90;;;;;;;;;;5064813;28;20208;-70
2022/06/24 11:38:26;;;;;;;1.67;1.67;;;;;;;;;;5061199;28;20214;-69
2022/06/24 11:41:21;;;;;;;2.00;1.90;;;;;;;;;;5063427;28;20812;-69
2022/06/24 11:44:09;;;;;;;1.70;1.70;;;;;;;;;;5058830;28;20216;-69
2022/06/24 11:46:57;;;;;;;1.70;1.70;;;;;;;;;;5056573;28;20210;-70
2022/06/24 11:49:45;;;;;;;2.05;1.95;;;;;;;;;;5056242;28;20204;-69
2022/06/24 11:52:45;;;;;;;1.60;1.60;;;;;;;;;;5059500;28;20222;-69
2022/06/24 11:55:34;;;;;;;2.03;1.95;;;;;;;;;;5065947;28;20207;-70
2022/06/24 11:58:22;;;;;;;1.80;1.75;;;;;;;;;;5064729;28;20217;-70
2022/06/24 12:01:09;;;;;;;1.80;1.80;;;;;;;;;;5065513;28;20603;-69
2022/06/24 12:04:00;;;;;;;2.03;1.92;;;;;;;;;;5062381;28;20742;-69
2022/06/24 12:06:48;;;;;;;1.67;1.65;;;;;;;;;;5057184;28;20203;-70
2022/06/24 12:09:35;;;;;;;1.50;1.50;;;;;;;;;;5058662;28;20210;-69
2022/06/24 12:12:23;;;;;;;1.83;1.77;;;;;;;;;;5060640;28;20210;-70
2022/06/24 12:15:10;;;;;;;1.50;1.50;;;;;;;;;;5059730;28;20207;-70
2022/06/24 12:17:57;;;;;;;1.90;1.80;;;;;;;;;;5061024;28;20226;-70
2022/06/24 12:20:56;;;;;;;1.70;1.60;;;;;;;;;;5064900;28;20219;-70
2022/06/24 12:23:44;;;;;;;1.80;1.70;;;;;;;;;;5065928;28;20211;-70
2022/06/24 12:26:31;;;;;;;1.73;1.73;;;;;;;;;;5066628;28;20203;-71
2022/06/24 12:29:25;;;;;;;1.73;1.73;;;;;;;;;;5060676;28;20219;-70
2022/06/24 12:32:12;;;;;;;2.08;2.00;;;;;;;;;;5064060;28;20196;-70
2022/06/24 12:34:59;;;;;;;1.42;1.42;;;;;;;;;;5060556;28;20199;-70
2022/06/24 12:37:54;;;;;;;1.70;1.70;;;;;;;;;;5063339;28;20200;-70
2022/06/24 12:40:43;;;;;;;2.50;1.55;;;;;;;;;;5055742;28;20722;-70
2022/06/24 12:43:30;;;;;;;1.42;1.42;;;;;;;;;;5061313;28;20282;-68
2022/06/24 12:46:17;;;;;;;1.70;1.70;;;;;;;;;;5058182;28;20216;-70
2022/06/24 12:52:29;;;;;;;1.38;1.38;;;;;;;;;;5054884;28;20203;-69
2022/06/24 12:55:19;;;;;;;1.60;1.60;;;;;;;;;;5058999;28;20621;-70
2022/06/24 12:58:08;;;;;;;1.50;1.50;;;;;;;;;;5058992;28;20214;-69
2022/06/24 13:00:55;;;;;;;1.40;1.40;;;;;;;;;;5061754;28;20289;-69
2022/06/24 13:03:42;;;;;;;1.73;1.63;;;;;;;;;;5056424;28;20227;-69
2022/06/24 13:06:29;;;;;;;1.40;1.40;;;;;;;;;;5055316;28;20210;-69
2022/06/24 13:09:16;;;;;;;1.70;1.60;;;;;;;;;;5058144;28;20573;-70
2022/06/24 13:12:06;;;;;;;1.30;1.30;;;;;;;;;;5060006;28;20207;-70
2022/06/24 13:14:53;;;;;;;1.48;1.48;;;;;;;;;;5057000;28;20678;-69
2022/06/24 13:17:43;;;;;;;1.30;1.30;;;;;;;;;;5059133;28;20211;-70
2022/06/24 13:20:30;;;;;;;1.55;1.50;;;;;;;;;;5059951;28;20231;-70
2022/06/24 13:23:17;;;;;;;1.42;1.42;;;;;;;;;;5060182;28;20219;-70
2022/06/24 13:26:04;;;;;;;1.67;1.60;;;;;;;;;;5061785;28;20555;-69
2022/06/24 13:28:53;;;;;;;1.40;1.40;;;;;;;;;;5056489;28;20216;-70
2022/06/24 13:31:41;;;;;;;1.60;1.60;;;;;;;;;;5066447;28;20195;-70
2022/06/24 13:34:28;;;;;;;1.50;1.50;;;;;;;;;;5062337;28;20206;-70
2022/06/24 13:37:15;;;;;;;1.23;1.23;;;;;;;;;;5058945;28;20203;-70
2022/06/24 13:40:03;;;;;;;1.48;1.48;;;;;;;;;;5056119;28;20204;-70
2022/06/24 13:42:50;;;;;;;1.40;1.40;;;;;;;;;;5057776;28;20199;-70
2022/06/24 13:45:39;;;;;;;1.27;1.27;;;;;;;;;;5054189;28;20211;-70
2022/06/24 13:48:26;;;;;;;1.42;1.42;;;;;;;;;;5059649;28;20554;-70
2022/06/24 13:51:13;;;;;;;1.10;1.10;;;;;;;;;;5059654;28;20563;-70
2022/06/24 13:54:00;;;;;;;1.20;1.20;;;;;;;;;;5057879;28;20219;-70
2022/06/24 13:56:48;;;;;;;1.40;1.40;;;;;;;;;;5058252;28;20210;-69
2022/06/24 13:59:35;;;;;;;1.42;1.42;;;;;;;;;;5060330;28;20269;-69
2022/06/24 14:02:24;;;;;;;1.38;1.38;;;;;;;;;;5059791;28;20230;-70
2022/06/24 14:05:11;;;;;;;1.30;1.30;;;;;;;;;;5058719;28;20669;-69
2022/06/24 14:07:58;;;;;;;1.20;1.20;;;;;;;;;;5057165;28;20238;-70
2022/06/24 14:10:46;;;;;;;1.30;1.30;;;;;;;;;;5066672;28;20206;-70
2022/06/24 14:13:34;;;;;;;1.17;1.17;;;;;;;;;;5056529;28;20580;-70
2022/06/24 14:16:21;;;;;;;1.50;1.50;;;;;;;;;;5056697;28;20202;-70
2022/06/24 14:19:09;;;;;;;1.35;1.35;;;;;;;;;;5060836;28;20213;-69
2022/06/24 14:21:56;;;;;;;1.27;1.27;;;;;;;;;;5059860;28;20231;-69
2022/06/24 14:24:43;;;;;;;1.17;1.17;;;;;;;;;;5055358;28;20200;-69
2022/06/24 14:27:30;;;;;;;1.13;1.13;;;;;;;;;;5056705;28;20764;-69
2022/06/24 14:30:17;;;;;;;1.45;1.45;;;;;;;;;;5061782;28;20203;-69
2022/06/24 14:33:06;;;;;;;1.30;1.30;;;;;;;;;;5059671;28;20221;-70
2022/06/24 14:35:54;;;;;;;1.20;1.20;;;;;;;;;;5058071;28;20206;-70
2022/06/24 14:42:01;;;;;;;1.38;1.38;;;;;;;;;;4996926;28;20312;-69
2022/06/24 14:44:48;;;;;;;1.05;1.05;;;;;;;;;;4994718;28;20275;-70
2022/06/24 14:47:38;;;;;;;1.17;1.17;;;;;;;;;;5054057;28;20218;-70
2022/06/24 14:50:25;;;;;;;1.20;1.20;;;;;;;;;;5052336;28;20211;-69
2022/06/24 14:53:14;;;;;;;1.02;1.02;;;;;;;;;;5061763;28;20209;-70
2022/06/24 14:56:01;;;;;;;1.10;1.10;;;;;;;;;;5056452;28;20245;-69
2022/06/24 14:58:48;;;;;;;1.23;1.23;;;;;;;;;;5056935;28;20744;-71
2022/06/24 15:01:35;;;;;;;1.20;1.17;;;;;;;;;;5060523;28;20245;-71
2022/06/24 15:04:22;;;;;;;1.42;1.42;;;;;;;;;;5055651;28;20222;-70
2022/06/24 15:07:09;;;;;;;1.13;1.13;;;;;;;;;;5056799;28;20235;-70
2022/06/24 15:09:58;;;;;;;1.08;1.08;;;;;;;;;;5063556;28;20218;-69
2022/06/24 15:12:45;;;;;;;0.90;0.90;;;;;;;;;;5055953;28;20195;-70
2022/06/24 15:15:33;;;;;;;1.13;1.13;;;;;;;;;;5058611;28;20219;-70
2022/06/24 15:18:20;;;;;;;1.13;1.13;;;;;;;;;;5054361;28;20206;-70
2022/06/24 15:21:07;;;;;;;1.20;1.20;;;;;;;;;;5060856;28;20316;-73
2022/06/24 15:23:55;;;;;;;1.20;1.20;;;;;;;;;;5059633;28;20209;-73
2022/06/24 15:26:43;;;;;;;1.15;1.15;;;;;;;;;;5063598;28;20210;-73
2022/06/24 15:29:30;;;;;;;1.20;1.20;;;;;;;;;;5060408;28;20206;-73
2022/06/24 15:32:18;;;;;;;1.10;1.10;;;;;;;;;;5061969;28;20221;-73
2022/06/24 15:35:06;;;;;;;1.08;1.08;;;;;;;;;;5061666;28;20598;-73
2022/06/24 15:37:53;;;;;;;1.10;1.10;;;;;;;;;;5056554;28;20213;-73
2022/06/24 15:40:40;;;;;;;1.20;1.20;;;;;;;;;;5061318;28;20216;-73
2022/06/24 15:43:29;;;;;;;1.20;1.20;;;;;;;;;;5060044;28;20205;-73
2022/06/24 15:46:18;;;;;;;1.35;1.27;;;;;;;;;;5062098;28;20199;-73
2022/06/24 15:49:06;;;;;;;1.05;1.05;;;;;;;;;;5062202;28;20210;-73
2022/06/24 15:51:53;;;;;;;1.30;1.30;;;;;;;;;;5058634;28;20205;-73
2022/06/24 15:54:40;;;;;;;1.27;1.17;;;;;;;;;;5065224;28;20237;-73
2022/06/24 15:57:27;;;;;;;1.10;1.10;;;;;;;;;;5058797;28;20457;-73
2022/06/24 16:00:16;;;;;;;1.20;1.20;;;;;;;;;;5063236;28;20235;-73
2022/06/24 16:03:03;;;;;;;1.00;1.00;;;;;;;;;;5063561;28;20231;-73
2022/06/24 16:05:50;;;;;;;1.23;1.23;;;;;;;;;;5062695;28;20215;-73
2022/06/24 16:08:37;;;;;;;1.08;1.08;;;;;;;;;;5059803;28;20238;-73
2022/06/24 16:11:24;;;;;;;1.20;1.20;;;;;;;;;;5059146;28;20199;-73
2022/06/24 16:14:11;;;;;;;0.95;0.95;;;;;;;;;;5063960;28;20199;-73
2022/06/24 16:17:00;;;;;;;1.10;1.10;;;;;;;;;;5062653;28;20231;-73
2022/06/24 16:19:47;;;;;;;1.15;1.15;;;;;;;;;;5065189;28;20210;-73
2022/06/24 16:22:35;;;;;;;1.00;1.00;;;;;;;;;;5059603;28;20616;-72
2022/06/24 16:31:36;;;;;;;1.20;1.20;;;;;;;;;;5056421;28;20211;-73
2022/06/24 16:34:24;;;;;;;1.30;1.30;;;;;;;;;;5061975;28;20265;-73
2022/06/24 16:37:11;;;;;;;1.60;1.50;;;;;;;;;;5060312;28;20215;-73
2022/06/24 16:39:58;;;;;;;1.15;1.15;;;;;;;;;;5062458;28;20246;-73
2022/06/24 16:45:47;;;;;;;1.50;1.40;;;;;;;;;;5059655;28;20203;-73
2022/06/24 16:48:35;;;;;;;1.20;1.20;;;;;;;;;;5065735;28;20214;-73
2022/06/24 16:51:23;;;;;;;1.30;1.30;;;;;;;;;;5063642;28;20561;-73
2022/06/24 16:54:10;;;;;;;1.13;1.13;;;;;;;;;;5061056;28;20200;-73
2022/06/24 16:56:57;;;;;;;1.20;1.20;;;;;;;;;;5056394;28;20208;-73
2022/06/24 16:59:44;;;;;;;1.05;1.05;;;;;;;;;;5062466;28;20206;-73
2022/06/24 17:02:31;;;;;;;1.27;1.27;;;;;;;;;;5053363;28;20238;-73
2022/06/24 17:05:19;;;;;;;1.48;1.48;;;;;;;;;;5061671;28;20294;-73
2022/06/24 17:08:08;;;;;;;1.30;1.30;;;;;;;;;;5059634;28;20238;-73
2022/06/24 17:10:56;;;;;;;1.17;1.17;;;;;;;;;;5062040;28;20207;-73
2022/06/24 17:13:43;;;;;;;1.30;1.30;;;;;;;;;;5056694;28;20213;-74
2022/06/24 17:16:30;;;;;;;1.25;1.25;;;;;;;;;;5057451;28;20218;-73